Metar z połowy godziny Komunikat METAR ze strony awiacja.imgw.pl Metar G30 EPKK METAR EPKK 180830Z 11003KT 080V140 9999 FEW060 M01/M05 Q1029 =